Marion, OH

7:00 PM EDT on May 28, 2015 (GMT -0400)
Neidhart Rd. South of Southern Estates | | Change Station
CLOSE
Current Station
Personal Weather Station
Location: Marion, OH
Elevation: 968 ft
Nearby Weather Stations

Elev 968 ft 40.53 °N, 83.09 °W | Updated 5 minutes ago

Clear
Clear
81.1 °F
Feels Like 83 °F
N
5.1
Wind Variable Wind from SSE

Today
High -- | Low -- °F
--% Chance of Precip.
Yesterday
High -- | Low -- °F
Precip. -- in
6:06 AM 8:53 PM
Waxing Gibbous, 79% visible
Pressure 30.17 in
Visibility 10.0 miles
Clouds Few 5500 ft
Heat Index 83 °F
Dew Point 64 °F
Humidity 57%
Rainfall 0.00 in
Snow Depth Not available.
UV 1 out of 12
Pollen 8.90 out of 12
Air Quality Not available.
Flu Activity Local Activity
METAR KMNN 282253Z AUTO 10007KT 10SM FEW055 26/14 A3018 RMK AO2 SLP215 T02610139 TSNO

More Conditions Fewer Conditions

Pressure 30.17 in
Visibility 10.0 miles
Clouds Few 5500 ft
Heat Index 83 °F
Dew Point 64 °F
Humidity 57%
Rainfall 0.00 in
Snow Depth Not available.
UV 1 out of 12
Pollen 8.90 out of 12
Air Quality Not available.
Flu Activity Local Activity
METAR KMNN 282253Z AUTO 10007KT 10SM FEW055 26/14 A3018 RMK AO2 SLP215 T02610139 TSNO

More Conditions Fewer Conditions

10-Day Weather Forecast

Almanac

Astronomy

May. 28, 2015 Rise Set
Actual Time
Civil Twilight
Nautical Twilight
Astronomical Twilight
Moon
Length of Visible Light
Length of Day
Tomorrow will be .
, % of the Moon is Illuminated

Today's Extremes

State Highs State Lows

Community

WunderPhotos

Upload Photos

1,825,089 photos uploaded!

WunderBlogs® & News

Nearby

Air Quality

  Air Quality AQ Index Pollutant
Not available.

Snow Depth

Station Depth Elevation

Earthquake Activity

City Distance Mag. Time & Date
Minimum magnitude displayed is 2.5.

Coastal Water Temperatures

Place Temperature

Stations

Nearby Weather Stations

Station Location Temp. Windchill Dew Point Humidity Wind Precip. Elev Updated Type